Time;durP1;ratioP1;P1;durP2;ratioP2;P2;SDS_P1;SDS_P2;PMS_P1;PMS_P2;Temp;Humidity;BMP_temperature;BMP_pressure;BME280_temperature;BME280_humidity;BME280_pressure;Samples;Min_cycle;Max_cycle;Signal;HPM_P1;HPM_P2
2023/02/28 00:00:21;;;;;;;4.82;1.17;;;3.50;99.90;;;;;;4907205;29;20031;-79
2023/02/28 00:02:47;;;;;;;4.82;1.10;;;3.40;99.90;;;;;;4922349;29;20401;-80
2023/02/28 00:05:16;;;;;;;6.50;1.88;;;3.40;99.90;;;;;;4906208;29;20041;-80
2023/02/28 00:07:42;;;;;;;5.75;1.20;;;3.40;99.90;;;;;;4922511;29;20029;-80
2023/02/28 00:10:14;;;;;;;4.50;1.13;;;3.40;99.90;;;;;;4921285;29;20029;-78
2023/02/28 00:12:40;;;;;;;2.78;1.27;;;3.40;99.90;;;;;;4903530;29;20032;-81
2023/02/28 00:15:07;;;;;;;1.90;0.77;;;3.40;99.90;;;;;;4920438;29;20034;-80
2023/02/28 00:17:33;;;;;;;4.53;1.83;;;3.40;99.90;;;;;;4901787;29;20051;-79
2023/02/28 00:20:01;;;;;;;1.85;1.17;;;3.40;99.90;;;;;;4914886;29;20024;-76
2023/02/28 00:22:27;;;;;;;4.30;1.48;;;3.50;99.90;;;;;;4919971;29;20453;-82
2023/02/28 00:24:53;;;;;;;3.22;0.90;;;3.50;99.90;;;;;;4919764;29;20039;-81
2023/02/28 00:27:18;;;;;;;0.90;0.73;;;3.50;99.90;;;;;;4902371;29;20075;-78
2023/02/28 00:29:46;;;;;;;6.10;1.38;;;3.50;99.90;;;;;;4901310;29;20025;-77
2023/02/28 00:32:12;;;;;;;1.30;1.00;;;3.50;99.90;;;;;;4919676;29;20038;-78
2023/02/28 00:34:37;;;;;;;2.13;0.88;;;3.60;99.90;;;;;;4919590;29;20020;-78
2023/02/28 00:37:08;;;;;;;1.80;0.95;;;3.60;99.90;;;;;;4898877;29;20260;-78
2023/02/28 00:39:35;;;;;;;2.00;0.90;;;3.60;99.90;;;;;;4891445;29;20532;-77
2023/02/28 00:42:02;;;;;;;1.85;1.02;;;3.60;99.90;;;;;;4902200;29;20051;-79
2023/02/28 00:44:28;;;;;;;2.28;1.23;;;3.60;99.90;;;;;;4917483;29;20123;-80
2023/02/28 00:46:55;;;;;;;4.20;1.05;;;3.70;99.90;;;;;;4897456;29;20033;-79
2023/02/28 00:49:21;;;;;;;0.77;0.57;;;3.70;99.90;;;;;;4900694;29;20409;-81
2023/02/28 00:51:46;;;;;;;1.95;0.80;;;3.70;99.90;;;;;;4918943;29;20035;-80
2023/02/28 00:54:12;;;;;;;1.42;0.85;;;3.70;99.90;;;;;;4885268;29;20029;-78
2023/02/28 00:56:39;;;;;;;6.03;0.80;;;3.70;99.90;;;;;;4901056;29;21004;-78
2023/02/28 00:59:04;;;;;;;3.25;0.93;;;3.80;99.90;;;;;;4918347;29;20477;-78
2023/02/28 01:01:30;;;;;;;1.77;1.02;;;3.70;99.90;;;;;;4901423;29;20027;-78
2023/02/28 01:03:56;;;;;;;8.00;1.30;;;3.70;99.90;;;;;;4918506;29;20032;-78
2023/02/28 01:06:23;;;;;;;1.35;0.70;;;3.70;99.90;;;;;;4902226;29;20051;-79
2023/02/28 01:08:49;;;;;;;2.30;1.40;;;3.70;99.90;;;;;;4923346;29;20032;-79
2023/02/28 01:11:16;;;;;;;4.50;1.00;;;3.70;99.90;;;;;;4918104;29;20402;-78
2023/02/28 01:13:43;;;;;;;0.67;0.67;;;3.70;99.90;;;;;;4918021;29;20050;-79
2023/02/28 01:16:09;;;;;;;6.33;1.77;;;3.70;99.90;;;;;;4917770;29;20815;-80
2023/02/28 01:18:36;;;;;;;1.27;1.10;;;3.80;99.90;;;;;;4902189;29;20024;-79
2023/02/28 01:21:10;;;;;;;1.92;1.00;;;3.80;99.90;;;;;;4896343;29;20032;-80
2023/02/28 01:23:36;;;;;;;4.15;0.90;;;3.80;99.90;;;;;;4909705;29;20028;-78
2023/02/28 01:26:07;;;;;;;1.58;1.20;;;3.80;99.90;;;;;;4917478;29;20031;-78
2023/02/28 01:28:33;;;;;;;3.83;1.00;;;3.90;99.90;;;;;;4899725;29;20516;-81
2023/02/28 01:30:59;;;;;;;2.28;1.40;;;3.90;99.90;;;;;;4917528;29;20481;-82
2023/02/28 01:33:25;;;;;;;1.60;1.42;;;3.80;99.90;;;;;;4906205;29;20060;-80
2023/02/28 01:35:58;;;;;;;1.25;1.10;;;3.90;99.90;;;;;;4892912;29;20358;-82
2023/02/28 01:38:24;;;;;;;5.32;1.13;;;3.90;99.90;;;;;;4900771;29;20504;-77
2023/02/28 01:40:50;;;;;;;2.00;1.00;;;3.90;99.90;;;;;;4897768;29;20031;-77
2023/02/28 01:43:27;;;;;;;2.83;1.25;;;4.00;99.90;;;;;;4900745;29;20087;-78
2023/02/28 01:45:55;;;;;;;3.30;1.03;;;4.00;99.90;;;;;;4913701;29;20119;-78
2023/02/28 01:48:34;;;;;;;1.60;1.05;;;4.00;99.90;;;;;;4918012;29;20028;-79
2023/02/28 01:51:24;;;;;;;1.48;1.17;;;4.00;99.90;;;;;;4900722;29;20552;-79
2023/02/28 01:53:59;;;;;;;3.13;1.05;;;4.00;99.90;;;;;;4916479;29;20040;-78
2023/02/28 01:56:30;;;;;;;3.10;1.05;;;4.10;99.90;;;;;;4916491;29;20024;-79
2023/02/28 01:58:56;;;;;;;4.03;1.20;;;4.00;99.90;;;;;;4894409;29;20494;-78
2023/02/28 02:01:23;;;;;;;1.80;1.10;;;4.00;99.90;;;;;;4894870;29;20024;-78
2023/02/28 02:03:55;;;;;;;2.17;1.13;;;4.00;99.90;;;;;;4917083;29;20058;-78
2023/02/28 02:06:43;;;;;;;4.50;1.17;;;4.00;99.90;;;;;;4915856;29;20039;-78
2023/02/28 02:09:08;;;;;;;;;;;4.00;99.90;;;;;;4917901;29;20385;-78
2023/02/28 02:11:35;;;;;;;2.83;0.90;;;4.10;99.90;;;;;;4901452;29;19911;-75
2023/02/28 02:14:39;;;;;;;1.97;1.43;;;4.00;99.90;;;;;;4914927;29;20527;-83
2023/02/28 02:17:10;;;;;;;1.25;1.15;;;4.00;99.90;;;;;;4899433;29;20527;-81
2023/02/28 02:20:13;;;;;;;1.98;1.30;;;4.00;99.90;;;;;;4902213;29;20044;-80
2023/02/28 02:22:57;;;;;;;2.70;1.60;;;4.00;99.90;;;;;;4916682;29;20069;-79
2023/02/28 02:25:50;;;;;;;5.47;1.52;;;4.00;99.90;;;;;;4919395;29;20040;-79
2023/02/28 02:28:21;;;;;;;3.58;1.15;;;4.00;99.90;;;;;;4914279;29;20047;-80
2023/02/28 02:31:00;;;;;;;1.55;1.23;;;4.00;99.90;;;;;;4915079;29;20107;-80
2023/02/28 02:33:46;;;;;;;6.78;1.30;;;4.10;99.90;;;;;;4901500;29;20051;-80
2023/02/28 02:36:33;;;;;;;2.65;1.27;;;4.10;99.90;;;;;;4921418;29;20043;-79
2023/02/28 02:39:17;;;;;;;4.88;1.50;;;4.20;99.90;;;;;;4904025;29;20052;-80
2023/02/28 02:41:53;;;;;;;1.40;1.00;;;4.20;99.90;;;;;;4908868;29;20114;-80
2023/02/28 02:44:27;;;;;;;1.35;1.23;;;4.20;99.90;;;;;;4921202;29;20033;-80
2023/02/28 02:47:00;;;;;;;3.20;1.10;;;4.20;99.90;;;;;;4920358;29;20028;-80
2023/02/28 02:49:32;;;;;;;2.83;1.20;;;4.30;99.90;;;;;;4919186;29;20044;-79
2023/02/28 02:52:02;;;;;;;4.32;1.13;;;4.30;99.90;;;;;;4892963;29;20132;-80
2023/02/28 02:54:32;;;;;;;4.88;1.38;;;4.30;99.90;;;;;;4902191;29;20043;-80
2023/02/28 02:57:03;;;;;;;7.00;1.50;;;4.30;99.90;;;;;;4904305;29;20032;-80
2023/02/28 02:59:30;;;;;;;1.90;1.27;;;4.40;99.90;;;;;;4904373;29;20139;-80
2023/02/28 03:01:59;;;;;;;1.77;1.15;;;4.40;99.90;;;;;;4915874;29;20044;-80
2023/02/28 03:04:31;;;;;;;2.33;1.08;;;4.30;99.90;;;;;;4904037;29;20064;-80
2023/02/28 03:06:56;;;;;;;2.58;2.03;;;4.40;99.90;;;;;;4920750;29;20036;-80
2023/02/28 03:09:25;;;;;;;3.72;1.52;;;4.30;99.90;;;;;;4918949;29;20366;-81
2023/02/28 03:11:53;;;;;;;4.97;1.15;;;4.20;99.90;;;;;;4903933;29;20035;-80
2023/02/28 03:14:45;;;;;;;2.53;1.45;;;4.30;99.90;;;;;;4901237;29;20032;-79
2023/02/28 03:17:22;;;;;;;4.63;1.20;;;4.30;99.90;;;;;;4920819;29;20028;-80
2023/02/28 03:20:10;;;;;;;1.33;1.23;;;4.30;99.90;;;;;;4903006;29;20036;-79
2023/02/28 03:22:52;;;;;;;1.13;1.02;;;4.30;99.90;;;;;;4902014;29;20433;-79
2023/02/28 03:25:17;;;;;;;1.67;1.35;;;4.30;99.90;;;;;;4913433;29;20036;-79
2023/02/28 03:28:15;;;;;;;3.30;1.30;;;4.30;99.90;;;;;;4920603;29;20080;-79
2023/02/28 03:31:18;;;;;;;2.80;1.23;;;4.20;99.90;;;;;;4912363;29;20043;-80
2023/02/28 03:34:09;;;;;;;5.72;1.38;;;4.20;99.90;;;;;;4920303;29;20480;-80
2023/02/28 03:36:45;;;;;;;2.67;1.17;;;4.30;99.90;;;;;;4908316;29;20111;-80
2023/02/28 03:39:35;;;;;;;3.75;1.50;;;4.30;99.90;;;;;;4900868;29;20051;-79
2023/02/28 03:42:15;;;;;;;6.07;1.20;;;4.30;99.90;;;;;;4902904;29;20446;-79
2023/02/28 03:44:40;;;;;;;1.30;1.13;;;4.30;99.90;;;;;;4918725;29;20378;-80
2023/02/28 03:47:26;;;;;;;2.88;1.15;;;4.30;99.90;;;;;;4919945;29;20048;-79
2023/02/28 03:50:06;;;;;;;2.85;1.75;;;4.30;99.90;;;;;;4919563;29;20449;-79
2023/02/28 03:52:35;;;;;;;1.85;1.35;;;4.30;99.90;;;;;;4920328;29;20032;-80
2023/02/28 03:55:08;;;;;;;3.55;1.95;;;4.30;99.90;;;;;;4918607;29;20028;-80
2023/02/28 03:57:47;;;;;;;2.15;1.25;;;4.30;99.90;;;;;;4917433;29;20028;-79
2023/02/28 04:00:24;;;;;;;2.65;1.58;;;4.30;99.90;;;;;;4899217;29;20139;-79
2023/02/28 04:02:52;;;;;;;3.70;1.42;;;4.30;99.90;;;;;;4893166;29;20044;-80
2023/02/28 04:05:19;;;;;;;;;;;4.30;99.90;;;;;;4880571;29;20049;-79
2023/02/28 04:07:44;;;;;;;1.60;1.40;;;4.40;99.90;;;;;;4880687;29;19907;-79
2023/02/28 04:10:11;;;;;;;3.70;1.75;;;4.40;99.90;;;;;;4879561;29;20040;-80
2023/02/28 04:12:38;;;;;;;2.70;0.98;;;4.50;99.90;;;;;;4864560;29;20049;-79
2023/02/28 04:15:05;;;;;;;3.65;1.58;;;4.40;99.90;;;;;;4864566;29;20130;-78
2023/02/28 04:17:31;;;;;;;8.95;1.73;;;4.40;99.90;;;;;;4880435;29;20104;-80
2023/02/28 04:19:57;;;;;;;5.35;1.88;;;4.50;99.90;;;;;;4861655;29;20573;-80
2023/02/28 04:22:26;;;;;;;6.70;2.00;;;4.50;99.90;;;;;;4879735;29;20544;-80
2023/02/28 04:24:54;;;;;;;6.95;1.85;;;4.50;99.90;;;;;;4879753;29;20526;-80
2023/02/28 04:27:20;;;;;;;4.20;2.00;;;4.50;99.90;;;;;;4864929;29;20048;-80
2023/02/28 04:29:46;;;;;;;6.65;1.52;;;4.50;99.90;;;;;;4879052;29;20165;-79
2023/02/28 04:32:13;;;;;;;2.47;1.35;;;4.50;99.90;;;;;;4879807;29;20538;-79
2023/02/28 04:34:39;;;;;;;2.72;1.85;;;4.50;99.90;;;;;;4879860;29;20092;-79
2023/02/28 04:37:05;;;;;;;1.63;1.52;;;4.50;99.90;;;;;;4890932;29;20552;-79
2023/02/28 04:39:36;;;;;;;3.00;1.80;;;4.40;99.90;;;;;;4918162;29;20040;-80
2023/02/28 04:42:01;;;;;;;2.70;1.80;;;4.40;99.90;;;;;;4919530;29;20025;-79
2023/02/28 04:44:27;;;;;;;4.13;1.83;;;4.40;99.90;;;;;;4919479;29;20043;-79
2023/02/28 04:46:52;;;;;;;7.47;2.20;;;4.50;99.90;;;;;;4919263;29;20088;-79
2023/02/28 04:49:18;;;;;;;4.47;2.05;;;4.50;99.90;;;;;;4901809;29;20024;-79
2023/02/28 04:51:44;;;;;;;2.25;2.05;;;4.50;99.90;;;;;;4901518;29;20509;-79
2023/02/28 04:54:09;;;;;;;5.07;1.77;;;4.50;99.90;;;;;;4919027;29;20052;-79
2023/02/28 04:56:35;;;;;;;4.50;1.80;;;4.50;99.90;;;;;;4918734;29;20465;-79
2023/02/28 04:59:01;;;;;;;3.15;2.05;;;4.60;99.90;;;;;;4937113;29;20389;-80
2023/02/28 05:01:34;;;;;;;4.97;2.45;;;4.50;99.90;;;;;;4920850;29;20396;-79
2023/02/28 05:04:02;;;;;;;4.90;2.33;;;4.50;99.90;;;;;;4920655;29;20071;-79
2023/02/28 05:06:29;;;;;;;;;;;4.40;99.90;;;;;;4934767;29;20029;-79
2023/02/28 05:08:56;;;;;;;7.88;1.88;;;4.40;99.90;;;;;;4918432;29;19977;-79
2023/02/28 05:11:37;;;;;;;3.10;1.67;;;4.40;99.90;;;;;;4918871;29;20016;-79
2023/02/28 05:14:04;;;;;;;1.65;1.23;;;4.30;99.90;;;;;;4916240;29;20163;-80
2023/02/28 05:16:31;;;;;;;4.38;1.60;;;4.20;99.90;;;;;;4917942;29;20110;-78
2023/02/28 05:18:58;;;;;;;2.35;1.63;;;4.10;99.90;;;;;;4899062;29;20032;-79
2023/02/28 05:21:36;;;;;;;4.15;1.92;;;4.00;99.90;;;;;;4901140;29;20028;-79
2023/02/28 05:24:12;;;;;;;3.13;1.92;;;3.90;99.90;;;;;;4901365;29;20024;-78
2023/02/28 05:26:40;;;;;;;3.08;2.00;;;3.90;99.90;;;;;;4917778;29;20070;-78
2023/02/28 05:29:06;;;;;;;4.30;1.42;;;3.90;99.90;;;;;;4918372;29;20524;-78
2023/02/28 05:31:33;;;;;;;3.72;1.40;;;3.90;99.90;;;;;;4918526;29;20027;-80
2023/02/28 05:33:59;;;;;;;1.52;1.40;;;3.80;99.90;;;;;;4917854;29;20039;-79
2023/02/28 05:36:25;;;;;;;3.90;1.33;;;3.80;99.90;;;;;;4918093;29;20028;-79
2023/02/28 05:38:51;;;;;;;2.50;1.50;;;3.90;99.90;;;;;;4917847;29;20024;-79
2023/02/28 05:41:19;;;;;;;1.60;1.10;;;3.80;99.90;;;;;;4901374;29;20016;-78
2023/02/28 05:43:46;;;;;;;3.53;1.77;;;3.80;99.90;;;;;;4919055;29;20028;-78
2023/02/28 05:46:12;;;;;;;4.80;1.30;;;3.80;99.90;;;;;;4917923;29;20028;-78
2023/02/28 05:48:39;;;;;;;4.65;1.42;;;3.80;99.90;;;;;;4917403;29;20028;-78
2023/02/28 05:51:06;;;;;;;2.78;1.60;;;3.70;99.90;;;;;;4917013;29;20082;-78
2023/02/28 05:53:32;;;;;;;12.00;1.90;;;3.70;99.90;;;;;;4916223;29;20036;-79
2023/02/28 05:55:58;;;;;;;2.35;1.90;;;3.70;99.90;;;;;;4917829;29;20080;-78
2023/02/28 05:58:28;;;;;;;1.92;1.60;;;3.70;99.90;;;;;;4917728;29;20442;-79
2023/02/28 06:00:57;;;;;;;2.30;1.40;;;3.60;99.90;;;;;;4901215;29;20040;-79
2023/02/28 06:03:22;;;;;;;;;;;3.50;99.90;;;;;;4918660;29;20028;-80
2023/02/28 06:05:48;;;;;;;3.60;1.60;;;3.40;99.90;;;;;;4919152;29;19923;-79
2023/02/28 06:08:13;;;;;;;2.22;1.67;;;3.30;99.90;;;;;;4881149;29;20157;-78
2023/02/28 06:10:39;;;;;;;5.88;1.83;;;3.30;99.90;;;;;;4879054;29;20551;-80
2023/02/28 06:13:05;;;;;;;5.60;2.03;;;3.20;99.90;;;;;;4890265;29;20045;-78
2023/02/28 06:15:31;;;;;;;7.50;1.52;;;3.10;99.90;;;;;;4900151;29;20028;-78
2023/02/28 06:17:58;;;;;;;5.80;1.67;;;3.00;99.90;;;;;;4901665;29;20104;-79
2023/02/28 06:20:29;;;;;;;2.25;1.60;;;2.80;99.90;;;;;;4891107;29;20021;-79
2023/02/28 06:22:59;;;;;;;6.55;2.20;;;2.80;99.90;;;;;;4908249;29;20089;-78
2023/02/28 06:25:26;;;;;;;6.15;1.80;;;2.70;99.90;;;;;;4882621;29;20065;-79
2023/02/28 06:27:52;;;;;;;1.35;1.25;;;2.50;99.90;;;;;;4901179;29;20029;-78
2023/02/28 06:30:18;;;;;;;2.25;1.80;;;2.50;99.90;;;;;;4901573;29;20088;-78
2023/02/28 06:32:43;;;;;;;3.60;2.42;;;2.40;99.90;;;;;;4902135;29;20089;-79
2023/02/28 06:35:09;;;;;;;3.28;1.80;;;2.30;99.90;;;;;;4887089;29;20036;-78
2023/02/28 06:37:35;;;;;;;3.65;2.05;;;2.30;99.90;;;;;;4902215;29;20033;-78
2023/02/28 06:40:01;;;;;;;2.95;1.70;;;2.20;99.90;;;;;;4935947;29;20028;-78
2023/02/28 06:42:28;;;;;;;7.82;2.67;;;2.20;99.90;;;;;;4940534;29;20047;-77
2023/02/28 06:44:57;;;;;;;2.55;1.73;;;2.20;99.90;;;;;;4924390;29;20060;-79
2023/02/28 06:47:23;;;;;;;12.65;2.60;;;2.20;99.90;;;;;;4940995;29;20032;-77
2023/02/28 06:49:49;;;;;;;2.17;1.88;;;2.20;99.90;;;;;;4940339;29;20013;-78
2023/02/28 06:52:15;;;;;;;2.50;2.22;;;2.20;99.90;;;;;;4941197;29;20064;-78
2023/02/28 06:54:41;;;;;;;3.53;1.88;;;2.20;99.90;;;;;;4941369;29;20088;-79
2023/02/28 06:57:07;;;;;;;2.85;2.50;;;2.20;99.90;;;;;;4941537;29;20027;-78
2023/02/28 06:59:32;;;;;;;3.65;2.10;;;2.20;99.90;;;;;;4924526;29;20013;-79
2023/02/28 07:01:58;;;;;;;3.55;2.58;;;2.30;99.90;;;;;;4934275;29;20079;-78
2023/02/28 07:04:24;;;;;;;4.13;2.13;;;2.30;99.90;;;;;;4944924;29;20043;-79
2023/02/28 07:06:49;;;;;;;2.25;1.98;;;2.30;99.90;;;;;;4945006;29;20008;-78
2023/02/28 07:09:15;;;;;;;4.18;2.30;;;2.30;99.90;;;;;;4944287;29;20032;-78
2023/02/28 07:11:42;;;;;;;3.88;2.55;;;2.30;99.90;;;;;;4928127;29;20047;-79
2023/02/28 07:14:08;;;;;;;3.70;2.47;;;2.40;99.90;;;;;;4940370;29;20040;-77
2023/02/28 07:16:34;;;;;;;3.33;2.55;;;2.40;99.90;;;;;;4942458;29;20394;-78
2023/02/28 07:18:59;;;;;;;4.25;2.70;;;2.50;99.90;;;;;;4937274;29;20159;-79
2023/02/28 07:21:25;;;;;;;8.82;2.58;;;2.60;99.90;;;;;;4929192;29;20090;-78
2023/02/28 07:23:51;;;;;;;4.63;2.75;;;2.60;99.90;;;;;;4930612;29;20039;-78
2023/02/28 07:26:19;;;;;;;14.05;3.10;;;2.60;99.90;;;;;;4911915;29;20028;-78
2023/02/28 07:28:46;;;;;;;10.60;3.40;;;2.70;99.90;;;;;;4926262;29;20032;-78
2023/02/28 07:31:14;;;;;;;6.25;2.47;;;2.70;99.90;;;;;;4925815;29;20048;-79
2023/02/28 07:33:40;;;;;;;6.60;2.28;;;2.70;99.90;;;;;;4943025;29;20031;-80
2023/02/28 07:36:09;;;;;;;4.82;3.30;;;2.70;99.90;;;;;;4926524;29;20020;-79
2023/02/28 07:38:37;;;;;;;7.53;3.20;;;2.80;99.90;;;;;;4926605;29;20020;-79
2023/02/28 07:41:05;;;;;;;6.35;2.95;;;2.80;99.90;;;;;;4902417;29;20504;-80
2023/02/28 07:43:32;;;;;;;2.30;2.05;;;2.90;99.90;;;;;;4919274;29;20124;-79
2023/02/28 07:46:03;;;;;;;5.57;2.60;;;2.90;99.90;;;;;;4904903;29;20028;-80
2023/02/28 07:48:28;;;;;;;6.13;3.22;;;3.00;99.90;;;;;;4904636;29;20047;-79
2023/02/28 07:50:56;;;;;;;8.32;2.85;;;3.00;99.90;;;;;;4903288;29;20047;-79
2023/02/28 07:53:22;;;;;;;3.22;2.00;;;3.10;99.90;;;;;;4900968;29;20033;-80
2023/02/28 07:55:47;;;;;;;13.48;2.80;;;3.10;99.90;;;;;;4901872;29;20061;-79
2023/02/28 07:58:13;;;;;;;2.72;2.30;;;3.10;99.90;;;;;;4921517;29;20066;-80
2023/02/28 08:00:39;;;;;;;4.70;2.97;;;3.10;99.90;;;;;;4939526;29;20031;-79
2023/02/28 08:03:05;;;;;;;8.30;2.60;;;3.20;99.90;;;;;;4931393;29;20043;-80
2023/02/28 08:05:31;;;;;;;4.70;3.00;;;3.20;99.90;;;;;;4922689;29;20040;-79
2023/02/28 08:07:57;;;;;;;4.65;2.45;;;3.30;99.90;;;;;;4901659;29;20020;-78
2023/02/28 08:10:23;;;;;;;7.10;2.72;;;3.30;99.90;;;;;;4898893;29;20044;-79
2023/02/28 08:12:49;;;;;;;5.68;2.83;;;3.30;99.90;;;;;;4917873;29;20115;-78
2023/02/28 08:15:16;;;;;;;5.43;3.15;;;3.40;99.90;;;;;;4902065;29;20091;-79
2023/02/28 08:17:42;;;;;;;8.25;3.20;;;3.40;99.90;;;;;;4902185;29;20035;-81
2023/02/28 08:20:10;;;;;;;5.60;2.30;;;3.40;99.90;;;;;;4902849;29;20036;-79
2023/02/28 08:22:35;;;;;;;3.30;2.55;;;3.40;99.90;;;;;;4911861;29;20488;-80
2023/02/28 08:25:01;;;;;;;7.15;2.30;;;3.40;99.90;;;;;;4899358;29;20044;-80
2023/02/28 08:27:27;;;;;;;4.97;2.40;;;3.40;99.90;;;;;;4912147;29;20477;-80
2023/02/28 08:29:52;;;;;;;4.28;2.53;;;3.30;99.90;;;;;;4930629;29;20377;-80
2023/02/28 08:32:19;;;;;;;3.10;2.17;;;3.30;99.90;;;;;;4902492;29;20019;-79
2023/02/28 08:34:45;;;;;;;4.03;3.00;;;3.30;99.90;;;;;;4909227;29;20122;-79
2023/02/28 08:37:11;;;;;;;5.00;2.30;;;3.40;99.90;;;;;;4902462;29;20488;-80
2023/02/28 08:39:36;;;;;;;4.35;2.67;;;3.50;99.90;;;;;;4929026;29;20032;-80
2023/02/28 08:42:04;;;;;;;3.88;2.85;;;3.60;99.90;;;;;;4901657;29;20784;-77
2023/02/28 08:44:30;;;;;;;9.43;3.00;;;3.80;99.90;;;;;;4907767;29;20155;-80
2023/02/28 08:46:55;;;;;;;4.95;2.70;;;3.80;99.90;;;;;;4917588;29;20063;-81
2023/02/28 08:49:21;;;;;;;5.43;3.15;;;3.80;99.90;;;;;;4900854;29;20016;-78
2023/02/28 08:51:46;;;;;;;5.80;3.00;;;3.90;99.90;;;;;;4916344;29;20387;-78
2023/02/28 08:54:12;;;;;;;4.50;2.42;;;3.90;99.90;;;;;;4919434;29;20038;-80
2023/02/28 08:56:39;;;;;;;7.10;2.75;;;3.90;99.90;;;;;;4918913;29;20028;-82
2023/02/28 08:59:05;;;;;;;3.30;3.00;;;4.00;99.90;;;;;;4917075;29;20433;-81
2023/02/28 09:01:31;;;;;;;3.83;2.63;;;4.10;99.90;;;;;;4901094;29;20028;-80
2023/02/28 09:03:57;;;;;;;4.13;2.70;;;4.20;99.90;;;;;;4894081;29;20111;-79
2023/02/28 09:06:25;;;;;;;6.50;3.55;;;4.30;99.90;;;;;;4913012;29;20047;-80
2023/02/28 09:08:52;;;;;;;4.78;2.65;;;4.30;99.90;;;;;;4900325;29;20044;-79
2023/02/28 09:11:18;;;;;;;4.57;2.45;;;4.40;99.90;;;;;;4898340;29;20032;-75
2023/02/28 09:13:45;;;;;;;6.25;2.15;;;4.50;99.90;;;;;;4899240;29;20496;-76
2023/02/28 09:16:14;;;;;;;3.65;2.42;;;4.50;99.90;;;;;;4917331;29;20028;-77
2023/02/28 09:18:40;;;;;;;3.65;2.20;;;4.50;99.90;;;;;;4899624;29;20606;-76
2023/02/28 09:21:13;;;;;;;3.22;1.80;;;4.50;99.90;;;;;;4917727;29;20047;-76
2023/02/28 09:23:40;;;;;;;2.78;1.70;;;4.60;99.90;;;;;;4918151;29;20035;-76
2023/02/28 09:26:06;;;;;;;2.05;1.40;;;4.60;99.90;;;;;;4899820;29;20083;-76
2023/02/28 09:28:32;;;;;;;5.32;1.80;;;4.60;99.90;;;;;;4914818;29;20030;-76
2023/02/28 09:30:58;;;;;;;1.35;1.15;;;4.60;99.90;;;;;;4900234;29;20484;-76
2023/02/28 09:33:24;;;;;;;2.75;1.55;;;4.60;99.90;;;;;;4894801;29;20036;-75
2023/02/28 09:35:50;;;;;;;1.45;1.35;;;4.60;99.90;;;;;;4917383;29;20075;-75
2023/02/28 09:38:17;;;;;;;2.35;1.60;;;4.60;99.90;;;;;;4917241;29;20522;-76
2023/02/28 09:40:51;;;;;;;2.60;1.60;;;4.60;99.90;;;;;;4898845;29;20077;-75
2023/02/28 09:43:21;;;;;;;7.38;1.98;;;4.60;99.90;;;;;;4897533;29;20036;-75
2023/02/28 09:46:02;;;;;;;1.40;1.10;;;4.60;99.90;;;;;;4895971;29;20169;-76
2023/02/28 09:48:42;;;;;;;3.42;1.30;;;4.70;99.90;;;;;;4910908;29;20020;-76
2023/02/28 09:51:28;;;;;;;3.53;1.15;;;4.80;99.90;;;;;;4917383;29;20123;-76
2023/02/28 09:53:54;;;;;;;2.22;1.48;;;4.90;99.90;;;;;;4898441;29;20079;-76
2023/02/28 09:56:27;;;;;;;3.83;1.58;;;5.10;99.90;;;;;;4907808;29;20028;-76
2023/02/28 09:59:13;;;;;;;1.85;1.27;;;5.20;99.90;;;;;;4917677;29;20103;-76
2023/02/28 10:02:01;;;;;;;3.10;1.45;;;5.30;99.90;;;;;;4900638;29;20023;-76
2023/02/28 10:04:55;;;;;;;1.52;1.40;;;5.40;99.90;;;;;;4906243;29;20044;-75
2023/02/28 10:07:26;;;;;;;2.55;1.40;;;5.50;99.90;;;;;;4919301;29;20028;-75
2023/02/28 10:09:57;;;;;;;7.63;1.90;;;5.60;99.90;;;;;;4917428;29;20024;-76
2023/02/28 10:12:25;;;;;;;5.25;2.67;;;5.80;99.90;;;;;;4897542;29;20036;-76
2023/02/28 10:14:54;;;;;;;6.07;1.38;;;6.20;99.90;;;;;;4925368;29;20031;-74
2023/02/28 10:17:40;;;;;;;2.42;0.93;;;6.30;99.90;;;;;;4918889;29;20075;-75
2023/02/28 10:20:13;;;;;;;0.93;0.93;;;6.50;99.90;;;;;;4922327;29;20051;-75
2023/02/28 10:23:19;;;;;;;0.75;0.73;;;6.50;99.90;;;;;;4914399;29;20032;-76
2023/02/28 10:25:52;;;;;;;0.70;0.70;;;6.30;99.90;;;;;;4890308;29;20092;-75
2023/02/28 10:28:18;;;;;;;0.70;0.70;;;6.30;99.90;;;;;;4899636;29;20119;-76
2023/02/28 10:30:50;;;;;;;1.05;0.95;;;6.10;99.90;;;;;;4899841;29;20488;-75
2023/02/28 10:33:24;;;;;;;1.30;0.80;;;6.00;99.90;;;;;;4900027;29;20060;-76
2023/02/28 10:35:51;;;;;;;2.88;1.10;;;6.10;99.90;;;;;;4896528;29;20020;-75
2023/02/28 10:38:26;;;;;;;3.42;0.60;;;6.20;99.90;;;;;;4916550;29;20023;-76
2023/02/28 10:41:02;;;;;;;1.50;0.95;;;6.30;99.80;;;;;;4907790;29;20540;-76
2023/02/28 10:43:28;;;;;;;1.77;1.25;;;6.40;99.90;;;;;;4900247;29;20549;-74
2023/02/28 10:46:09;;;;;;;1.15;0.93;;;6.40;99.90;;;;;;4901478;29;20111;-75
2023/02/28 10:48:51;;;;;;;2.50;0.60;;;6.40;99.90;;;;;;4900409;29;20469;-75
2023/02/28 10:51:18;;;;;;;1.30;1.13;;;6.70;99.60;;;;;;4901282;29;20454;-75
2023/02/28 10:53:52;;;;;;;4.80;1.10;;;6.90;99.90;;;;;;4901277;29;20045;-75
2023/02/28 10:56:21;;;;;;;1.25;1.13;;;7.10;99.90;;;;;;4914958;29;20026;-76
2023/02/28 10:59:08;;;;;;;1.35;1.10;;;7.30;99.40;;;;;;4921905;29;20530;-75
2023/02/28 11:01:48;;;;;;;1.02;0.98;;;7.40;98.40;;;;;;4935211;29;20711;-75
2023/02/28 11:04:29;;;;;;;1.35;0.93;;;7.30;97.20;;;;;;4900199;29;20044;-75
2023/02/28 11:07:21;;;;;;;3.08;1.67;;;7.30;98.30;;;;;;4908418;29;20039;-76
2023/02/28 11:09:52;;;;;;;2.97;1.10;;;7.40;98.00;;;;;;4909107;29;20543;-75
2023/02/28 11:12:34;;;;;;;4.18;1.15;;;7.50;97.90;;;;;;4920326;29;20079;-76
2023/02/28 11:15:05;;;;;;;1.60;1.00;;;7.40;97.30;;;;;;4920707;29;20032;-74
2023/02/28 11:17:32;;;;;;;1.52;0.88;;;7.20;97.50;;;;;;4905142;29;20063;-76
2023/02/28 11:20:06;;;;;;;1.60;1.15;;;7.20;98.00;;;;;;4918315;29;20118;-75
2023/02/28 11:22:37;;;;;;;0.80;0.80;;;7.20;98.00;;;;;;4903928;29;20040;-75
2023/02/28 11:25:10;;;;;;;2.17;0.98;;;7.30;97.40;;;;;;4903248;29;20035;-74
2023/02/28 11:27:52;;;;;;;0.77;0.77;;;7.30;97.30;;;;;;4903155;29;20063;-76
2023/02/28 11:30:37;;;;;;;0.60;0.60;;;7.30;98.30;;;;;;4903185;29;20115;-75
2023/02/28 11:33:28;;;;;;;1.10;1.00;;;7.40;97.30;;;;;;4902843;29;20024;-75
2023/02/28 11:36:00;;;;;;;2.17;1.30;;;7.40;97.00;;;;;;4903209;29;20380;-76
2023/02/28 11:38:26;;;;;;;2.08;1.27;;;7.40;97.30;;;;;;4903217;29;20080;-74
2023/02/28 11:41:07;;;;;;;2.10;1.20;;;7.40;98.50;;;;;;4902827;29;20489;-75
2023/02/28 11:43:47;;;;;;;1.38;1.02;;;7.50;98.50;;;;;;4902264;29;20456;-75
2023/02/28 11:46:22;;;;;;;3.13;0.95;;;7.60;96.60;;;;;;4902978;29;20032;-75
2023/02/28 11:49:13;;;;;;;1.17;1.00;;;7.50;97.30;;;;;;4919171;29;20028;-75
2023/02/28 11:51:58;;;;;;;1.63;0.80;;;7.50;97.20;;;;;;4902021;29;20067;-75
2023/02/28 11:54:51;;;;;;;3.08;0.88;;;7.50;97.50;;;;;;4919515;29;20030;-75
2023/02/28 11:57:19;;;;;;;2.65;0.90;;;7.50;96.10;;;;;;4919705;29;20484;-75
2023/02/28 12:00:15;;;;;;;1.45;1.08;;;7.50;96.10;;;;;;4899283;29;20043;-74
2023/02/28 12:03:03;;;;;;;1.65;0.88;;;7.40;97.00;;;;;;4918920;29;20024;-75
2023/02/28 12:05:45;;;;;;;0.97;0.80;;;7.50;96.20;;;;;;4925510;29;20194;-74
2023/02/28 12:08:42;;;;;;;1.88;0.88;;;7.60;96.00;;;;;;4919622;29;20083;-75
2023/02/28 12:11:22;;;;;;;3.55;0.95;;;7.60;96.30;;;;;;4883214;29;20044;-75
2023/02/28 12:13:54;;;;;;;1.83;1.25;;;7.60;95.70;;;;;;4913331;29;20107;-76
2023/02/28 12:16:37;;;;;;;1.40;1.10;;;7.70;95.80;;;;;;4909072;29;20026;-75
2023/02/28 12:19:25;;;;;;;1.67;1.35;;;7.90;95.80;;;;;;4927712;29;20042;-77
2023/02/28 12:21:51;;;;;;;2.88;1.23;;;7.90;96.60;;;;;;4883890;29;20108;-78
2023/02/28 12:24:54;;;;;;;1.20;0.93;;;8.00;95.50;;;;;;4879215;29;20140;-77
2023/02/28 12:27:24;;;;;;;1.27;0.82;;;8.20;94.80;;;;;;4851120;29;20041;-78
2023/02/28 12:29:56;;;;;;;1.33;0.93;;;8.10;95.30;;;;;;4914933;29;20036;-79
2023/02/28 12:32:30;;;;;;;2.22;0.90;;;8.00;95.10;;;;;;4913503;29;20040;-76
2023/02/28 12:35:08;;;;;;;3.10;1.35;;;8.00;96.00;;;;;;4912551;29;20075;-77
2023/02/28 12:37:45;;;;;;;1.50;1.40;;;8.10;94.50;;;;;;4893864;29;20032;-76
2023/02/28 12:40:15;;;;;;;1.10;1.00;;;8.20;95.00;;;;;;4898215;29;20079;-78
2023/02/28 12:42:46;;;;;;;1.63;0.82;;;8.10;94.60;;;;;;4911894;29;20044;-77
2023/02/28 12:45:31;;;;;;;1.25;1.15;;;8.20;94.40;;;;;;4904273;29;20099;-77
2023/02/28 12:48:03;;;;;;;1.20;1.02;;;8.10;94.50;;;;;;4900852;29;20043;-77
2023/02/28 12:50:31;;;;;;;2.10;1.35;;;8.10;94.00;;;;;;4916747;29;20132;-77
2023/02/28 12:53:17;;;;;;;2.05;1.92;;;8.10;94.10;;;;;;4899335;29;20044;-77
2023/02/28 12:56:06;;;;;;;1.77;1.67;;;8.30;94.30;;;;;;4898736;29;20512;-75
2023/02/28 12:58:35;;;;;;;1.35;1.08;;;8.30;94.50;;;;;;4918164;29;20101;-77
2023/02/28 13:01:16;;;;;;;1.40;0.98;;;8.40;94.10;;;;;;4916903;29;20070;-77
2023/02/28 13:03:50;;;;;;;1.08;1.00;;;8.50;94.50;;;;;;4917150;29;20043;-77
2023/02/28 13:06:42;;;;;;;3.97;1.05;;;8.50;93.80;;;;;;4913585;29;20497;-77
2023/02/28 13:09:15;;;;;;;0.90;0.90;;;8.60;94.10;;;;;;4899716;29;20067;-75
2023/02/28 13:11:48;;;;;;;1.42;1.27;;;8.60;93.90;;;;;;4900598;29;20079;-75
2023/02/28 13:14:37;;;;;;;2.28;1.40;;;8.70;94.60;;;;;;4918053;29;20056;-76
2023/02/28 13:17:08;;;;;;;1.48;1.10;;;8.70;93.50;;;;;;4917364;29;20031;-75
2023/02/28 13:19:43;;;;;;;1.75;0.85;;;8.80;95.20;;;;;;4926293;29;20059;-75